createdAt,value
2023-01-31T00:01:40.719Z,100811.00
2023-01-31T00:04:12.418Z,100820.00
2023-01-31T00:06:43.749Z,100829.00
2023-01-31T00:09:12.592Z,100829.00
2023-01-31T00:11:39.974Z,100828.00
2023-01-31T00:14:10.428Z,100825.00
2023-01-31T00:16:37.606Z,100836.00
2023-01-31T00:19:05.031Z,100836.00
2023-01-31T00:21:32.451Z,100844.00
2023-01-31T00:24:00.270Z,100831.00
2023-01-31T00:26:30.737Z,100854.00
2023-01-31T00:29:01.188Z,100848.00
2023-01-31T00:31:30.742Z,100848.00
2023-01-31T00:33:59.148Z,100843.00
2023-01-31T00:36:29.806Z,100863.00
2023-01-31T00:38:59.619Z,100868.00
2023-01-31T00:41:29.975Z,100861.00
2023-01-31T00:43:57.532Z,100858.00
2023-01-31T00:46:24.784Z,100859.00
2023-01-31T00:48:52.285Z,100870.00
2023-01-31T00:51:20.246Z,100869.00
2023-01-31T00:53:47.837Z,100876.00
2023-01-31T00:56:23.572Z,100884.00
2023-01-31T00:58:51.082Z,100888.00
2023-01-31T01:01:23.093Z,100898.00
2023-01-31T01:03:50.448Z,100892.00
2023-01-31T01:06:17.512Z,100902.00
2023-01-31T01:08:45.601Z,100905.00
2023-01-31T01:11:25.746Z,100917.00
2023-01-31T01:13:52.874Z,100908.00
2023-01-31T01:16:24.003Z,100923.00
2023-01-31T01:18:54.809Z,100920.00
2023-01-31T01:21:28.877Z,100924.00
2023-01-31T01:23:59.210Z,100921.00
2023-01-31T01:26:30.950Z,100927.00
2023-01-31T01:29:00.762Z,100928.00
2023-01-31T01:31:30.509Z,100926.00
2023-01-31T01:34:07.699Z,100925.00
2023-01-31T01:36:36.665Z,100923.00
2023-01-31T01:39:07.226Z,100921.00
2023-01-31T01:41:34.090Z,100925.00
2023-01-31T01:44:05.505Z,100926.00
2023-01-31T01:46:46.140Z,100945.00
2023-01-31T01:49:35.447Z,100945.00
2023-01-31T01:52:08.333Z,100945.00
2023-01-31T01:54:46.699Z,100955.00
2023-01-31T01:57:18.646Z,100962.00
2023-01-31T02:00:10.171Z,100968.00
2023-01-31T02:02:37.458Z,100978.00
2023-01-31T02:05:07.014Z,100980.00
2023-01-31T02:07:33.900Z,100996.00
2023-01-31T02:10:12.510Z,100991.00
2023-01-31T02:12:40.100Z,100985.00
2023-01-31T02:15:08.128Z,100989.00
2023-01-31T02:17:35.185Z,100990.00
2023-01-31T02:20:26.566Z,100993.00
2023-01-31T02:23:37.420Z,101004.00
2023-01-31T02:26:52.306Z,101012.00
2023-01-31T02:29:37.267Z,101015.00
2023-01-31T02:32:28.134Z,101029.00
2023-01-31T02:35:27.770Z,101048.00
2023-01-31T02:38:21.189Z,101046.00
2023-01-31T02:41:11.630Z,101044.00
2023-01-31T02:44:18.441Z,101054.00
2023-01-31T02:47:15.502Z,101042.00
2023-01-31T02:50:09.828Z,101048.00
2023-01-31T02:52:59.410Z,101041.00
2023-01-31T02:55:58.617Z,101024.00
2023-01-31T02:58:33.485Z,101026.00
2023-01-31T03:01:04.608Z,101031.00
2023-01-31T03:03:38.080Z,101027.00
2023-01-31T03:06:27.043Z,101025.00
2023-01-31T03:09:22.021Z,101030.00
2023-01-31T03:12:33.282Z,101028.00
2023-01-31T03:15:10.268Z,101021.00
2023-01-31T03:18:11.095Z,101023.00
2023-01-31T03:21:03.719Z,101023.00
2023-01-31T03:23:34.689Z,101033.00
2023-01-31T03:26:06.378Z,101030.00
2023-01-31T03:28:37.108Z,101040.00
2023-01-31T03:31:19.966Z,101019.00
2023-01-31T03:33:55.958Z,101052.00
2023-01-31T03:36:46.525Z,101043.00
2023-01-31T03:39:42.574Z,101045.00
2023-01-31T03:42:19.721Z,101052.00
2023-01-31T03:44:56.961Z,101058.00
2023-01-31T03:47:45.253Z,101055.00
2023-01-31T03:50:36.200Z,101058.00
2023-01-31T03:53:29.576Z,101071.00
2023-01-31T03:56:08.135Z,101054.00
2023-01-31T03:58:43.310Z,101058.00
2023-01-31T04:01:12.815Z,101059.00
2023-01-31T04:03:45.666Z,101047.00
2023-01-31T04:06:13.862Z,101058.00
2023-01-31T04:08:41.235Z,101061.00
2023-01-31T04:11:14.035Z,101076.00
2023-01-31T04:13:42.744Z,101080.00
2023-01-31T04:16:09.595Z,101071.00
2023-01-31T04:18:38.384Z,101075.00
2023-01-31T04:21:05.766Z,101075.00
2023-01-31T04:23:33.266Z,101073.00
2023-01-31T04:26:00.146Z,101087.00
2023-01-31T04:28:26.860Z,101079.00
2023-01-31T04:30:55.709Z,101082.00
2023-01-31T04:33:23.335Z,101077.00
2023-01-31T04:35:53.589Z,101085.00
2023-01-31T04:38:20.525Z,101091.00
2023-01-31T04:40:47.682Z,101100.00
2023-01-31T04:43:14.433Z,101112.00
2023-01-31T04:45:42.243Z,101107.00
2023-01-31T04:48:09.173Z,101114.00
2023-01-31T04:50:36.629Z,101114.00
2023-01-31T04:53:04.637Z,101123.00
2023-01-31T04:55:31.779Z,101129.00
2023-01-31T04:57:58.789Z,101131.00
2023-01-31T05:00:25.634Z,101139.00
2023-01-31T05:02:53.970Z,101127.00
2023-01-31T05:05:21.670Z,101128.00
2023-01-31T05:07:48.555Z,101124.00
2023-01-31T05:10:16.105Z,101124.00
2023-01-31T05:12:42.837Z,101114.00
2023-01-31T05:15:11.755Z,101126.00
2023-01-31T05:17:39.283Z,101117.00
2023-01-31T05:20:06.927Z,101125.00
2023-01-31T05:22:34.031Z,101113.00
2023-01-31T05:25:00.853Z,101123.00
2023-01-31T05:27:27.770Z,101117.00
2023-01-31T05:29:54.920Z,101120.00
2023-01-31T05:32:21.982Z,101116.00
2023-01-31T05:34:48.745Z,101125.00
2023-01-31T05:37:15.523Z,101140.00
2023-01-31T05:39:42.414Z,101134.00
2023-01-31T05:42:09.202Z,101140.00
2023-01-31T05:44:35.965Z,101139.00
2023-01-31T05:47:02.779Z,101145.00
2023-01-31T05:49:33.538Z,101139.00
2023-01-31T05:52:01.253Z,101137.00
2023-01-31T05:54:28.176Z,101151.00
2023-01-31T05:56:55.070Z,101144.00
2023-01-31T05:59:21.911Z,101161.00
2023-01-31T06:01:48.731Z,101161.00
2023-01-31T06:04:15.647Z,101145.00
2023-01-31T06:06:42.692Z,101149.00
2023-01-31T06:09:09.637Z,101145.00
2023-01-31T06:11:36.368Z,101143.00
2023-01-31T06:14:03.295Z,101152.00
2023-01-31T06:16:30.169Z,101149.00
2023-01-31T06:18:58.149Z,101159.00
2023-01-31T06:21:24.959Z,101149.00
2023-01-31T06:23:51.840Z,101159.00
2023-01-31T06:26:18.634Z,101160.00
2023-01-31T06:28:46.384Z,101171.00
2023-01-31T06:31:13.668Z,101165.00
2023-01-31T06:33:47.267Z,101176.00
2023-01-31T06:36:18.893Z,101171.00
2023-01-31T06:38:51.186Z,101185.00
2023-01-31T06:41:19.592Z,101183.00
2023-01-31T06:43:46.405Z,101188.00
2023-01-31T06:46:13.220Z,101181.00
2023-01-31T06:48:40.039Z,101187.00
2023-01-31T06:51:07.185Z,101178.00
2023-01-31T06:53:33.974Z,101180.00
2023-01-31T06:56:00.919Z,101181.00
2023-01-31T06:58:28.250Z,101184.00
2023-01-31T07:00:55.121Z,101175.00
2023-01-31T07:03:22.076Z,101177.00
2023-01-31T07:05:48.874Z,101180.00
2023-01-31T07:08:15.638Z,101181.00
2023-01-31T07:10:42.363Z,101176.00
2023-01-31T07:13:09.157Z,101174.00
2023-01-31T07:15:35.920Z,101173.00
2023-01-31T07:18:02.687Z,101171.00
2023-01-31T07:20:29.754Z,101164.00
2023-01-31T07:22:59.166Z,101156.00
2023-01-31T07:25:27.536Z,101143.00
2023-01-31T07:27:54.453Z,101143.00
2023-01-31T07:30:22.045Z,101157.00
2023-01-31T07:32:48.863Z,101170.00
2023-01-31T07:35:15.716Z,101159.00
2023-01-31T07:37:43.542Z,101170.00
2023-01-31T07:40:15.359Z,101160.00
2023-01-31T07:42:42.961Z,101175.00
2023-01-31T07:45:33.190Z,101174.00
2023-01-31T07:48:00.543Z,101165.00
2023-01-31T07:50:27.796Z,101163.00
2023-01-31T07:52:56.908Z,101163.00
2023-01-31T07:55:23.863Z,101168.00
2023-01-31T07:57:50.824Z,101173.00
2023-01-31T08:00:37.108Z,101164.00
2023-01-31T08:03:22.906Z,101162.00
2023-01-31T08:05:49.891Z,101164.00
2023-01-31T08:08:16.690Z,101164.00
2023-01-31T08:10:43.523Z,101169.00
2023-01-31T08:13:11.810Z,101160.00
2023-01-31T08:15:38.632Z,101151.00
2023-01-31T08:18:06.532Z,101151.00
2023-01-31T08:20:37.476Z,101145.00
2023-01-31T08:23:04.441Z,101152.00
2023-01-31T08:25:32.011Z,101159.00
2023-01-31T08:28:00.453Z,101148.00
2023-01-31T08:30:28.652Z,101145.00
2023-01-31T08:32:56.689Z,101156.00
2023-01-31T08:35:25.889Z,101145.00
2023-01-31T08:37:56.704Z,101144.00
2023-01-31T08:40:25.696Z,101147.00
2023-01-31T08:43:02.998Z,101142.00
2023-01-31T08:45:31.421Z,101144.00
2023-01-31T08:48:00.540Z,101145.00
2023-01-31T08:50:33.227Z,101146.00
2023-01-31T08:53:04.430Z,101143.00
2023-01-31T08:55:34.154Z,101133.00
2023-01-31T08:58:02.050Z,101140.00
2023-01-31T09:00:30.216Z,101146.00
2023-01-31T09:03:00.269Z,101138.00
2023-01-31T09:05:30.262Z,101134.00
2023-01-31T09:07:57.265Z,101138.00
2023-01-31T09:10:24.700Z,101129.00
2023-01-31T09:12:51.532Z,101154.00
2023-01-31T09:15:18.828Z,101133.00
2023-01-31T09:17:45.742Z,101125.00
2023-01-31T09:20:12.681Z,101116.00
2023-01-31T09:22:39.433Z,101117.00
2023-01-31T09:25:07.320Z,101108.00
2023-01-31T09:27:35.837Z,101105.00
2023-01-31T09:30:02.978Z,101110.00
2023-01-31T09:32:30.882Z,101105.00
2023-01-31T09:34:57.815Z,101117.00
2023-01-31T09:37:24.642Z,101104.00
2023-01-31T09:39:51.432Z,101104.00
2023-01-31T09:42:31.159Z,101093.00
2023-01-31T09:45:05.873Z,101094.00
2023-01-31T09:47:49.123Z,101100.00
2023-01-31T09:50:45.323Z,101084.00
2023-01-31T09:53:21.658Z,101083.00
2023-01-31T09:56:31.891Z,101077.00
2023-01-31T09:59:25.338Z,101073.00
2023-01-31T10:02:22.696Z,101069.00
2023-01-31T10:05:08.898Z,101074.00
2023-01-31T10:08:22.112Z,101066.00
2023-01-31T10:10:54.140Z,101049.00
2023-01-31T10:13:51.844Z,101054.00
2023-01-31T10:16:37.929Z,101041.00
2023-01-31T10:19:14.290Z,101051.00
2023-01-31T10:21:55.701Z,101042.00
2023-01-31T10:24:39.687Z,101042.00
2023-01-31T10:27:40.803Z,101037.00
2023-01-31T10:30:24.740Z,101025.00
2023-01-31T10:33:02.655Z,101025.00
2023-01-31T10:35:40.565Z,101013.00
2023-01-31T10:38:24.474Z,101013.00
2023-01-31T10:41:06.924Z,100995.00
2023-01-31T10:43:49.111Z,100994.00
2023-01-31T10:46:15.966Z,100998.00
2023-01-31T10:48:48.320Z,100992.00
2023-01-31T10:52:28.748Z,100986.00
2023-01-31T10:55:26.705Z,100982.00
2023-01-31T10:57:54.600Z,100986.00
2023-01-31T11:00:28.827Z,100979.00
2023-01-31T11:02:57.427Z,100977.00
2023-01-31T11:05:28.741Z,100964.00
2023-01-31T11:08:06.312Z,100955.00
2023-01-31T11:10:33.246Z,100953.00
2023-01-31T11:13:07.825Z,100952.00
2023-01-31T11:15:44.991Z,100948.00
2023-01-31T11:18:38.179Z,100944.00
2023-01-31T11:21:06.374Z,100933.00
2023-01-31T11:23:35.946Z,100935.00
2023-01-31T11:26:03.471Z,100926.00
2023-01-31T11:28:41.279Z,100918.00
2023-01-31T11:31:24.933Z,100903.00
2023-01-31T11:34:02.179Z,100901.00
2023-01-31T11:36:42.360Z,100893.00
2023-01-31T11:39:34.247Z,100891.00
2023-01-31T11:42:17.409Z,100890.00
2023-01-31T11:45:01.923Z,100896.00
2023-01-31T11:47:42.536Z,100884.00
2023-01-31T11:50:32.733Z,100879.00
2023-01-31T11:53:15.410Z,100874.00
2023-01-31T11:55:44.253Z,100869.00
2023-01-31T11:58:31.427Z,100866.00
2023-01-31T12:01:08.393Z,100851.00
2023-01-31T12:03:35.290Z,100835.00
2023-01-31T12:06:09.511Z,100836.00
2023-01-31T12:08:42.498Z,100814.00
2023-01-31T12:11:30.083Z,100811.00
2023-01-31T12:14:19.327Z,100797.00
2023-01-31T12:16:50.028Z,100783.00
2023-01-31T12:20:26.550Z,100775.00
2023-01-31T12:23:12.565Z,100775.00
2023-01-31T12:26:11.017Z,100768.00
2023-01-31T12:29:19.362Z,100769.00
2023-01-31T12:32:24.728Z,100752.00
2023-01-31T12:35:15.889Z,100762.00
2023-01-31T12:38:01.398Z,100757.00
2023-01-31T12:40:46.070Z,100743.00
2023-01-31T12:43:37.478Z,100744.00
2023-01-31T12:46:28.842Z,100736.00
2023-01-31T12:49:11.240Z,100734.00
2023-01-31T12:52:09.723Z,100735.00
2023-01-31T12:55:21.859Z,100732.00
2023-01-31T12:58:23.283Z,100724.00
2023-01-31T13:01:13.449Z,100715.00
2023-01-31T13:04:06.098Z,100714.00
2023-01-31T13:06:45.410Z,100706.00
2023-01-31T13:09:23.771Z,100714.00
2023-01-31T13:12:11.664Z,100704.00
2023-01-31T13:14:45.145Z,100691.00
2023-01-31T13:17:18.461Z,100696.00
2023-01-31T13:19:57.209Z,100696.00
2023-01-31T13:22:32.576Z,100701.00
2023-01-31T13:25:18.599Z,100691.00
2023-01-31T13:28:01.147Z,100688.00
2023-01-31T13:30:38.546Z,100690.00
2023-01-31T13:33:31.575Z,100683.00
2023-01-31T13:36:08.924Z,100684.00
2023-01-31T13:38:46.055Z,100678.00
2023-01-31T13:41:32.157Z,100673.00
2023-01-31T13:44:01.705Z,100662.00
2023-01-31T13:46:54.785Z,100667.00
2023-01-31T13:49:31.802Z,100669.00
2023-01-31T13:52:31.298Z,100675.00
2023-01-31T13:55:07.002Z,100666.00
2023-01-31T13:57:46.640Z,100661.00
2023-01-31T14:00:45.645Z,100661.00
2023-01-31T14:03:16.202Z,100673.00
2023-01-31T14:05:42.856Z,100663.00
2023-01-31T14:08:27.728Z,100669.00
2023-01-31T14:10:57.462Z,100679.00
2023-01-31T14:13:37.792Z,100666.00
2023-01-31T14:16:33.317Z,100662.00
2023-01-31T14:19:00.409Z,100663.00
2023-01-31T14:21:30.100Z,100661.00
2023-01-31T14:24:02.626Z,100648.00
2023-01-31T14:26:44.745Z,100662.00
2023-01-31T14:29:25.952Z,100657.00
2023-01-31T14:31:56.867Z,100644.00
2023-01-31T14:34:30.608Z,100634.00
2023-01-31T14:37:50.121Z,100639.00
2023-01-31T14:40:29.851Z,100635.00
2023-01-31T14:43:24.506Z,100631.00
2023-01-31T14:46:13.082Z,100629.00
2023-01-31T14:49:12.442Z,100617.00
2023-01-31T14:52:21.567Z,100624.00
2023-01-31T14:55:08.827Z,100618.00
2023-01-31T14:57:45.553Z,100624.00
2023-01-31T15:00:15.094Z,100615.00
2023-01-31T15:02:54.204Z,100616.00
2023-01-31T15:05:44.782Z,100610.00
2023-01-31T15:08:14.515Z,100611.00
2023-01-31T15:11:40.975Z,100592.00
2023-01-31T15:14:48.341Z,100612.00
2023-01-31T15:17:35.527Z,100600.00
2023-01-31T15:20:15.112Z,100605.00
2023-01-31T15:22:45.018Z,100610.00
2023-01-31T15:25:33.496Z,100599.00
2023-01-31T15:28:02.620Z,100594.00
2023-01-31T15:30:34.117Z,100593.00
2023-01-31T15:33:28.364Z,100592.00
2023-01-31T15:36:13.128Z,100583.00
2023-01-31T15:39:00.202Z,100595.00
2023-01-31T15:41:43.110Z,100587.00
2023-01-31T15:44:18.994Z,100572.00
2023-01-31T15:46:49.078Z,100596.00
2023-01-31T15:49:40.325Z,100590.00
2023-01-31T15:52:20.527Z,100583.00
2023-01-31T15:54:59.901Z,100569.00
2023-01-31T15:57:38.103Z,100575.00
2023-01-31T16:00:06.234Z,100561.00
2023-01-31T16:02:33.800Z,100567.00
2023-01-31T16:05:01.109Z,100564.00
2023-01-31T16:07:31.200Z,100572.00
2023-01-31T16:10:03.672Z,100570.00
2023-01-31T16:12:33.168Z,100562.00
2023-01-31T16:15:07.493Z,100554.00
2023-01-31T16:17:35.143Z,100576.00
2023-01-31T16:20:01.891Z,100568.00
2023-01-31T16:22:31.625Z,100576.00
2023-01-31T16:25:02.130Z,100567.00
2023-01-31T16:27:37.138Z,100565.00
2023-01-31T16:30:05.439Z,100576.00
2023-01-31T16:32:38.384Z,100582.00
2023-01-31T16:35:27.870Z,100576.00
2023-01-31T16:38:07.965Z,100589.00
2023-01-31T16:40:45.135Z,100583.00
2023-01-31T16:43:27.858Z,100582.00
2023-01-31T16:46:03.985Z,100575.00
2023-01-31T16:48:42.047Z,100582.00
2023-01-31T16:51:28.051Z,100570.00
2023-01-31T16:54:32.630Z,100551.00
2023-01-31T16:57:02.407Z,100559.00
2023-01-31T16:59:35.006Z,100552.00
2023-01-31T17:02:25.241Z,100546.00
2023-01-31T17:28:22.174Z,100524.00
2023-01-31T17:30:49.051Z,100524.00
2023-01-31T17:33:16.075Z,100524.00
2023-01-31T17:35:51.855Z,100524.00
2023-01-31T17:38:19.280Z,100516.00
2023-01-31T17:40:48.898Z,100508.00
2023-01-31T17:43:22.438Z,100513.00
2023-01-31T17:45:49.280Z,100509.00
2023-01-31T17:48:26.358Z,100505.00
2023-01-31T17:59:37.378Z,100477.00
2023-01-31T18:02:04.160Z,100464.00
2023-01-31T18:04:31.013Z,100455.00
2023-01-31T18:33:09.020Z,100450.00
2023-01-31T18:35:35.790Z,100441.00
2023-01-31T18:38:05.003Z,100448.00
2023-01-31T18:40:31.779Z,100444.00
2023-01-31T18:42:58.498Z,100417.00
2023-01-31T18:45:25.386Z,100421.00
2023-01-31T18:47:52.159Z,100436.00
2023-01-31T18:50:18.976Z,100435.00
2023-01-31T18:52:47.267Z,100425.00
2023-01-31T18:55:14.187Z,100418.00
2023-01-31T18:57:40.942Z,100428.00
2023-01-31T19:00:08.710Z,100427.00
2023-01-31T19:02:35.489Z,100419.00
2023-01-31T19:05:02.463Z,100428.00
2023-01-31T19:07:31.841Z,100438.00
2023-01-31T19:09:59.707Z,100423.00
2023-01-31T19:12:26.558Z,100438.00
2023-01-31T19:14:56.328Z,100429.00
2023-01-31T19:17:23.345Z,100437.00
2023-01-31T19:19:50.118Z,100433.00
2023-01-31T19:22:17.757Z,100450.00
2023-01-31T19:30:34.520Z,100501.00
2023-01-31T19:33:01.251Z,100519.00
2023-01-31T19:35:30.407Z,100511.00
2023-01-31T19:37:57.210Z,100491.00
2023-01-31T19:40:24.212Z,100471.00
2023-01-31T19:42:51.029Z,100492.00
2023-01-31T19:48:12.239Z,100452.00
2023-01-31T19:50:40.465Z,100468.00
2023-01-31T19:53:07.236Z,100475.00
2023-01-31T19:55:34.009Z,100476.00
2023-01-31T19:58:00.763Z,100480.00
2023-01-31T20:00:27.530Z,100494.00
2023-01-31T20:02:54.418Z,100502.00
2023-01-31T20:05:21.391Z,100504.00
2023-01-31T20:07:48.461Z,100506.00
2023-01-31T20:10:15.224Z,100524.00
2023-01-31T20:12:42.052Z,100522.00
2023-01-31T20:15:09.441Z,100519.00
2023-01-31T20:17:36.477Z,100519.00
2023-01-31T20:20:03.909Z,100512.00
2023-01-31T20:22:30.654Z,100515.00
2023-01-31T20:24:57.806Z,100512.00
2023-01-31T20:27:25.507Z,100509.00
2023-01-31T20:29:52.348Z,100519.00
2023-01-31T20:32:19.255Z,100531.00
2023-01-31T20:34:46.019Z,100529.00
2023-01-31T20:37:12.974Z,100524.00
2023-01-31T20:39:40.320Z,100531.00
2023-01-31T20:42:07.261Z,100543.00
2023-01-31T20:44:34.208Z,100525.00
2023-01-31T20:47:01.011Z,100521.00
2023-01-31T20:49:27.763Z,100529.00
2023-01-31T20:51:54.510Z,100530.00
2023-01-31T20:54:21.826Z,100543.00
2023-01-31T20:56:48.941Z,100534.00
2023-01-31T20:59:15.811Z,100540.00
2023-01-31T21:01:43.495Z,100543.00
2023-01-31T21:04:10.582Z,100552.00
2023-01-31T21:06:37.315Z,100556.00
2023-01-31T21:09:04.360Z,100552.00
2023-01-31T21:11:31.503Z,100562.00
2023-01-31T21:13:58.330Z,100570.00
2023-01-31T21:16:25.156Z,100560.00
2023-01-31T21:18:51.935Z,100562.00
2023-01-31T21:21:23.932Z,100568.00
2023-01-31T21:23:53.830Z,100583.00
2023-01-31T21:26:23.856Z,100569.00
2023-01-31T21:28:52.427Z,100586.00
2023-01-31T21:31:21.157Z,100590.00
2023-01-31T21:33:50.805Z,100580.00
2023-01-31T21:36:21.993Z,100582.00
2023-01-31T21:38:48.853Z,100588.00
2023-01-31T21:41:34.885Z,100611.00
2023-01-31T21:44:02.108Z,100626.00
2023-01-31T21:46:29.106Z,100668.00
2023-01-31T21:48:56.249Z,100639.00
2023-01-31T21:51:25.217Z,100594.00
2023-01-31T21:53:53.701Z,100593.00
2023-01-31T21:56:24.492Z,100582.00
2023-01-31T21:58:56.749Z,100601.00
2023-01-31T22:01:29.092Z,100604.00
2023-01-31T22:03:56.763Z,100596.00
2023-01-31T22:06:31.264Z,100606.00
2023-01-31T22:09:01.430Z,100604.00
2023-01-31T22:11:33.000Z,100600.00
2023-01-31T22:14:03.126Z,100597.00
2023-01-31T22:16:30.565Z,100588.00
2023-01-31T22:19:00.607Z,100590.00
2023-01-31T22:21:31.635Z,100586.00
2023-01-31T22:24:01.414Z,100586.00
2023-01-31T22:26:32.399Z,100590.00
2023-01-31T22:29:03.463Z,100591.00
2023-01-31T22:31:31.760Z,100590.00
2023-01-31T22:34:00.264Z,100589.00
2023-01-31T22:36:27.459Z,100591.00
2023-01-31T22:38:54.792Z,100575.00
2023-01-31T22:41:22.049Z,100593.00
2023-01-31T22:43:51.233Z,100579.00
2023-01-31T22:46:23.767Z,100593.00
2023-01-31T22:48:51.542Z,100588.00
2023-01-31T22:51:22.575Z,100586.00
2023-01-31T22:53:50.378Z,100589.00
2023-01-31T22:56:28.836Z,100576.00
2023-01-31T22:59:01.789Z,100573.00
2023-01-31T23:01:34.702Z,100577.00
2023-01-31T23:04:05.382Z,100582.00
2023-01-31T23:06:32.418Z,100581.00
2023-01-31T23:08:59.515Z,100593.00
2023-01-31T23:11:27.282Z,100581.00
2023-01-31T23:13:54.576Z,100598.00
2023-01-31T23:16:42.999Z,100582.00
2023-01-31T23:19:10.910Z,100590.00
2023-01-31T23:21:42.701Z,100587.00
2023-01-31T23:24:11.215Z,100601.00
2023-01-31T23:26:38.221Z,100590.00
2023-01-31T23:29:05.335Z,100577.00
2023-01-31T23:31:32.562Z,100565.00
2023-01-31T23:34:00.640Z,100573.00
2023-01-31T23:36:27.970Z,100563.00
2023-01-31T23:38:54.691Z,100578.00
2023-01-31T23:41:21.494Z,100581.00
2023-01-31T23:43:48.349Z,100577.00
2023-01-31T23:46:15.218Z,100587.00
2023-01-31T23:48:42.126Z,100599.00
2023-01-31T23:51:09.172Z,100587.00
2023-01-31T23:53:35.977Z,100587.00
2023-01-31T23:56:02.699Z,100587.00
2023-01-31T23:58:29.528Z,100587.00
